createdAt,value
2018-12-27T00:01:52.382Z,52.70
2018-12-27T00:04:23.881Z,38.85
2018-12-27T00:06:55.332Z,47.88
2018-12-27T00:09:26.782Z,42.00
2018-12-27T00:11:58.576Z,47.35
2018-12-27T00:14:29.976Z,53.85
2018-12-27T00:17:01.328Z,48.42
2018-12-27T00:19:32.956Z,39.10
2018-12-27T00:22:04.335Z,47.80
2018-12-27T00:24:35.643Z,46.77
2018-12-27T00:27:07.062Z,47.65
2018-12-27T00:29:38.425Z,45.43
2018-12-27T00:32:10.012Z,40.60
2018-12-27T00:34:41.705Z,46.98
2018-12-27T00:37:13.333Z,42.03
2018-12-27T00:39:45.010Z,42.43
2018-12-27T00:42:16.927Z,42.80
2018-12-27T00:44:48.539Z,46.53
2018-12-27T00:47:20.208Z,40.78
2018-12-27T00:49:51.830Z,38.08
2018-12-27T00:52:23.583Z,40.43
2018-12-27T00:54:55.106Z,41.98
2018-12-27T00:57:26.768Z,46.33
2018-12-27T00:59:58.824Z,48.08
2018-12-27T01:02:30.745Z,45.60
2018-12-27T01:05:02.725Z,46.48
2018-12-27T01:07:34.515Z,43.10
2018-12-27T01:10:06.394Z,39.60
2018-12-27T01:12:37.982Z,49.50
2018-12-27T01:15:09.739Z,40.43
2018-12-27T01:17:41.503Z,33.70
2018-12-27T01:20:13.162Z,41.55
2018-12-27T01:22:44.952Z,40.63
2018-12-27T01:25:16.790Z,43.48
2018-12-27T01:27:48.416Z,43.20
2018-12-27T01:30:19.943Z,36.55
2018-12-27T01:32:51.640Z,41.10
2018-12-27T01:35:23.228Z,50.10
2018-12-27T01:37:55.108Z,41.25
2018-12-27T01:40:26.726Z,36.88
2018-12-27T01:42:58.434Z,42.13
2018-12-27T01:45:30.031Z,40.80
2018-12-27T01:48:01.526Z,44.85
2018-12-27T01:50:33.106Z,47.25
2018-12-27T01:53:04.819Z,47.55
2018-12-27T01:55:36.353Z,39.58
2018-12-27T01:58:07.844Z,46.85
2018-12-27T02:00:39.475Z,34.83
2018-12-27T02:03:11.096Z,36.40
2018-12-27T02:05:42.695Z,38.48
2018-12-27T02:08:14.202Z,40.17
2018-12-27T02:10:45.765Z,38.08
2018-12-27T02:13:17.455Z,46.20
2018-12-27T02:15:49.224Z,37.88
2018-12-27T02:18:21.081Z,41.35
2018-12-27T02:20:52.923Z,44.95
2018-12-27T02:23:24.770Z,41.48
2018-12-27T02:25:56.352Z,34.80
2018-12-27T02:28:27.979Z,41.70
2018-12-27T02:30:59.636Z,40.88
2018-12-27T02:33:46.487Z,39.38
2018-12-27T02:36:18.162Z,33.10
2018-12-27T02:38:49.722Z,42.27
2018-12-27T02:41:21.563Z,33.35
2018-12-27T02:43:53.203Z,38.90
2018-12-27T02:46:25.883Z,37.42
2018-12-27T02:48:57.487Z,41.53
2018-12-27T02:51:29.159Z,36.35
2018-12-27T02:54:00.980Z,44.10
2018-12-27T02:56:32.625Z,43.23
2018-12-27T02:59:04.382Z,36.30
2018-12-27T03:01:35.889Z,37.45
2018-12-27T03:04:07.572Z,37.00
2018-12-27T03:06:39.239Z,35.75
2018-12-27T03:09:10.987Z,39.65
2018-12-27T03:11:42.580Z,34.00
2018-12-27T03:14:14.243Z,42.78
2018-12-27T03:16:45.732Z,38.67
2018-12-27T03:19:17.355Z,39.23
2018-12-27T03:21:49.042Z,41.37
2018-12-27T03:24:20.688Z,35.35
2018-12-27T03:26:52.385Z,44.05
2018-12-27T03:29:23.988Z,40.45
2018-12-27T03:31:55.575Z,34.08
2018-12-27T03:34:27.183Z,38.98
2018-12-27T03:36:58.830Z,41.40
2018-12-27T03:39:30.492Z,34.45
2018-12-27T03:42:02.285Z,42.53
2018-12-27T03:44:33.948Z,33.28
2018-12-27T03:47:05.638Z,37.05
2018-12-27T03:49:37.484Z,35.08
2018-12-27T03:52:09.040Z,36.50
2018-12-27T03:54:40.976Z,36.73
2018-12-27T03:57:12.732Z,39.40
2018-12-27T03:59:44.435Z,34.78
2018-12-27T04:02:16.189Z,35.75
2018-12-27T04:04:47.740Z,36.00
2018-12-27T04:07:19.356Z,34.95
2018-12-27T04:09:51.252Z,36.15
2018-12-27T04:12:22.923Z,32.67
2018-12-27T04:14:54.545Z,34.23
2018-12-27T04:17:25.881Z,35.58
2018-12-27T04:19:57.342Z,39.45
2018-12-27T04:22:28.748Z,35.83
2018-12-27T04:25:00.412Z,48.68
2018-12-27T04:27:31.761Z,32.60
2018-12-27T04:30:03.275Z,37.75
2018-12-27T04:32:34.814Z,37.70
2018-12-27T04:35:07.281Z,34.08
2018-12-27T04:37:38.718Z,35.75
2018-12-27T04:40:10.177Z,38.28
2018-12-27T04:42:41.653Z,36.00
2018-12-27T04:45:13.121Z,38.83
2018-12-27T04:47:44.577Z,36.75
2018-12-27T04:50:15.845Z,34.58
2018-12-27T04:52:47.297Z,36.15
2018-12-27T04:55:18.749Z,33.83
2018-12-27T04:57:50.218Z,34.30
2018-12-27T05:00:21.644Z,29.35
2018-12-27T05:02:53.061Z,34.45
2018-12-27T05:05:24.667Z,32.28
2018-12-27T05:07:56.142Z,31.35
2018-12-27T05:10:27.622Z,31.17
2018-12-27T05:12:59.124Z,40.65
2018-12-27T05:15:30.569Z,35.43
2018-12-27T05:18:02.004Z,35.13
2018-12-27T05:20:33.506Z,28.73
2018-12-27T05:23:04.757Z,32.45
2018-12-27T05:25:36.198Z,30.90
2018-12-27T05:28:07.634Z,34.98
2018-12-27T05:30:38.929Z,36.48
2018-12-27T05:33:10.381Z,40.05
2018-12-27T05:35:41.618Z,33.88
2018-12-27T05:38:13.007Z,26.85
2018-12-27T05:40:44.433Z,36.75
2018-12-27T05:43:15.894Z,30.55
2018-12-27T05:45:47.456Z,32.60
2018-12-27T05:48:18.883Z,32.40
2018-12-27T05:50:50.252Z,31.35
2018-12-27T05:53:21.794Z,33.67
2018-12-27T05:55:53.127Z,30.65
2018-12-27T05:58:24.607Z,42.93
2018-12-27T06:00:55.969Z,31.55
2018-12-27T06:03:27.440Z,32.98
2018-12-27T06:05:59.550Z,35.40
2018-12-27T06:08:30.893Z,33.85
2018-12-27T06:11:02.341Z,31.12
2018-12-27T06:13:33.804Z,34.23
2018-12-27T06:16:05.267Z,30.25
2018-12-27T06:18:36.714Z,30.55
2018-12-27T06:21:08.073Z,33.75
2018-12-27T06:23:39.508Z,31.07
2018-12-27T06:26:10.772Z,30.70
2018-12-27T06:28:42.209Z,29.70
2018-12-27T06:31:14.699Z,31.48
2018-12-27T06:33:46.238Z,23.57
2018-12-27T06:36:17.731Z,45.93
2018-12-27T06:38:49.165Z,24.70
2018-12-27T06:41:20.734Z,28.73
2018-12-27T06:43:53.785Z,29.12
2018-12-27T06:46:25.184Z,27.02
2018-12-27T06:48:56.548Z,28.05
2018-12-27T06:51:27.952Z,27.80
2018-12-27T06:53:59.379Z,33.50
2018-12-27T06:56:30.874Z,23.22
2018-12-27T06:59:02.364Z,27.05
2018-12-27T07:01:33.748Z,26.10
2018-12-27T07:04:05.168Z,34.70
2018-12-27T07:06:36.613Z,32.78
2018-12-27T07:09:09.407Z,27.90
2018-12-27T07:11:40.757Z,35.88
2018-12-27T07:14:12.292Z,31.50
2018-12-27T07:16:43.648Z,29.72
2018-12-27T07:19:15.091Z,26.45
2018-12-27T07:21:46.510Z,33.40
2018-12-27T07:24:17.989Z,26.12
2018-12-27T07:26:49.373Z,28.35
2018-12-27T07:29:20.889Z,26.65
2018-12-27T07:31:52.239Z,26.68
2018-12-27T07:34:23.587Z,30.92
2018-12-27T07:36:54.900Z,30.05
2018-12-27T07:39:27.469Z,29.77
2018-12-27T07:41:58.836Z,31.75
2018-12-27T07:44:30.291Z,34.85
2018-12-27T07:47:01.903Z,28.30
2018-12-27T07:49:33.487Z,31.35
2018-12-27T07:52:05.082Z,28.67
2018-12-27T07:54:36.615Z,28.42
2018-12-27T07:57:08.188Z,33.02
2018-12-27T07:59:39.644Z,36.20
2018-12-27T08:02:10.965Z,28.12
2018-12-27T08:04:42.390Z,29.60
2018-12-27T08:07:13.736Z,35.15
2018-12-27T08:09:45.127Z,33.80
2018-12-27T08:12:16.637Z,35.95
2018-12-27T08:14:48.175Z,31.00
2018-12-27T08:17:19.614Z,36.30
2018-12-27T08:19:51.096Z,32.73
2018-12-27T08:22:22.732Z,34.90
2018-12-27T08:24:54.084Z,29.00
2018-12-27T08:27:25.436Z,27.37
2018-12-27T08:29:56.852Z,27.95
2018-12-27T08:32:28.252Z,26.77
2018-12-27T08:34:59.656Z,26.82
2018-12-27T08:37:31.009Z,31.02
2018-12-27T08:40:02.516Z,31.90
2018-12-27T08:42:34.190Z,28.85
2018-12-27T08:45:07.950Z,29.32
2018-12-27T08:47:39.293Z,33.15
2018-12-27T08:50:10.760Z,24.77
2018-12-27T08:52:42.399Z,29.48
2018-12-27T08:55:13.743Z,27.10
2018-12-27T08:57:46.597Z,26.45
2018-12-27T09:00:18.123Z,28.65
2018-12-27T09:02:49.881Z,28.38
2018-12-27T09:05:21.304Z,28.42
2018-12-27T09:07:52.799Z,35.05
2018-12-27T09:10:24.321Z,25.27
2018-12-27T09:12:55.880Z,27.25
2018-12-27T09:15:28.540Z,33.88
2018-12-27T09:17:59.966Z,27.82
2018-12-27T09:20:31.374Z,25.68
2018-12-27T09:23:02.943Z,27.58
2018-12-27T09:25:34.338Z,24.47
2018-12-27T09:28:05.717Z,23.50
2018-12-27T09:30:37.212Z,30.23
2018-12-27T09:33:08.654Z,29.95
2018-12-27T09:35:40.110Z,24.45
2018-12-27T09:38:11.562Z,24.12
2018-12-27T09:40:43.080Z,26.05
2018-12-27T09:43:14.516Z,27.82
2018-12-27T09:45:46.008Z,24.43
2018-12-27T09:48:17.374Z,28.40
2018-12-27T09:50:48.903Z,30.88
2018-12-27T09:53:20.337Z,29.52
2018-12-27T09:55:51.815Z,28.65
2018-12-27T09:58:23.185Z,26.45
2018-12-27T10:00:54.913Z,23.55
2018-12-27T10:03:26.353Z,27.22
2018-12-27T10:05:57.830Z,28.70
2018-12-27T10:08:29.211Z,28.85
2018-12-27T10:11:00.699Z,31.80
2018-12-27T10:13:32.119Z,22.05
2018-12-27T10:16:03.554Z,25.85
2018-12-27T10:18:35.007Z,34.30
2018-12-27T10:21:06.525Z,30.60
2018-12-27T10:23:38.213Z,29.67
2018-12-27T10:26:09.561Z,22.45
2018-12-27T10:28:41.288Z,24.95
2018-12-27T10:31:12.775Z,25.62
2018-12-27T10:33:44.140Z,28.65
2018-12-27T10:36:15.931Z,26.10
2018-12-27T10:38:47.826Z,30.27
2018-12-27T10:41:19.297Z,29.50
2018-12-27T10:43:50.780Z,33.15
2018-12-27T10:46:22.104Z,25.88
2018-12-27T10:48:53.571Z,29.32
2018-12-27T10:51:25.237Z,23.18
2018-12-27T10:53:56.567Z,28.20
2018-12-27T10:56:28.265Z,25.43
2018-12-27T10:58:59.759Z,24.85
2018-12-27T11:01:31.232Z,32.58
2018-12-27T11:04:02.662Z,25.57
2018-12-27T11:06:34.075Z,25.97
2018-12-27T11:09:07.343Z,27.02
2018-12-27T11:11:38.790Z,25.60
2018-12-27T11:14:10.127Z,31.80
2018-12-27T11:16:41.600Z,29.92
2018-12-27T11:19:12.963Z,33.13
2018-12-27T11:21:44.389Z,28.00
2018-12-27T11:24:15.785Z,26.50
2018-12-27T11:26:47.199Z,24.82
2018-12-27T11:29:18.680Z,25.48
2018-12-27T11:31:50.129Z,31.10
2018-12-27T11:34:21.469Z,29.85
2018-12-27T11:36:52.894Z,25.72
2018-12-27T11:39:24.371Z,27.25
2018-12-27T11:41:57.049Z,24.63
2018-12-27T11:44:28.469Z,28.92
2018-12-27T11:46:59.794Z,23.92
2018-12-27T11:49:31.344Z,27.82
2018-12-27T11:52:02.681Z,26.75
2018-12-27T11:54:34.569Z,26.42
2018-12-27T11:57:06.329Z,30.97
2018-12-27T11:59:37.698Z,28.23
2018-12-27T12:02:09.037Z,25.10
2018-12-27T12:04:40.401Z,28.42
2018-12-27T12:07:11.809Z,26.42
2018-12-27T12:09:43.194Z,24.45
2018-12-27T12:12:14.955Z,21.15
2018-12-27T12:14:46.303Z,27.05
2018-12-27T12:17:17.601Z,27.80
2018-12-27T12:19:49.087Z,26.30
2018-12-27T12:22:20.772Z,31.50
2018-12-27T12:24:52.474Z,34.67
2018-12-27T12:27:24.927Z,25.95
2018-12-27T12:29:56.214Z,27.48
2018-12-27T12:32:27.616Z,24.87
2018-12-27T12:34:59.051Z,27.27
2018-12-27T12:37:30.485Z,23.00
2018-12-27T12:40:01.838Z,27.32
2018-12-27T12:42:33.985Z,24.70
2018-12-27T12:45:06.087Z,26.25
2018-12-27T12:47:37.537Z,26.93
2018-12-27T12:50:09.843Z,26.60
2018-12-27T12:52:41.241Z,28.60
2018-12-27T12:55:12.669Z,27.67
2018-12-27T12:57:44.585Z,27.42
2018-12-27T13:00:16.571Z,28.23
2018-12-27T13:02:48.781Z,25.50
2018-12-27T13:05:20.339Z,28.02
2018-12-27T13:07:51.983Z,29.45
2018-12-27T13:10:23.391Z,22.30
2018-12-27T13:12:54.987Z,30.35
2018-12-27T13:15:26.578Z,26.25
2018-12-27T13:17:57.879Z,22.87
2018-12-27T13:20:30.304Z,23.22
2018-12-27T13:23:01.669Z,28.35
2018-12-27T13:25:33.087Z,24.75
2018-12-27T13:28:04.483Z,26.48
2018-12-27T13:30:35.912Z,28.42
2018-12-27T13:33:07.397Z,28.57
2018-12-27T13:35:38.622Z,28.42
2018-12-27T13:38:10.039Z,29.05
2018-12-27T13:40:41.466Z,32.25
2018-12-27T13:43:12.950Z,35.40
2018-12-27T13:45:44.408Z,28.85
2018-12-27T13:48:15.940Z,34.55
2018-12-27T13:50:47.280Z,36.15
2018-12-27T13:53:18.578Z,41.42
2018-12-27T13:55:49.976Z,31.07
2018-12-27T13:58:21.411Z,36.63
2018-12-27T14:00:53.121Z,38.25
2018-12-27T14:03:24.474Z,37.67
2018-12-27T14:05:56.088Z,46.15
2018-12-27T14:08:28.009Z,46.90
2018-12-27T14:10:59.470Z,41.95
2018-12-27T14:13:30.894Z,41.13
2018-12-27T14:16:02.294Z,45.48
2018-12-27T14:18:33.663Z,45.78
2018-12-27T14:21:04.971Z,42.60
2018-12-27T14:23:36.343Z,41.75
2018-12-27T14:26:09.024Z,40.15
2018-12-27T14:28:40.707Z,40.35
2018-12-27T14:31:12.226Z,44.60
2018-12-27T14:33:43.725Z,43.58
2018-12-27T14:36:15.203Z,37.98
2018-12-27T14:38:46.647Z,44.73
2018-12-27T14:41:18.190Z,35.85
2018-12-27T14:43:49.590Z,46.20
2018-12-27T14:46:21.057Z,41.28
2018-12-27T14:48:52.333Z,45.25
2018-12-27T14:51:23.761Z,46.23
2018-12-27T14:53:56.066Z,44.15
2018-12-27T14:56:27.453Z,45.67
2018-12-27T14:58:58.910Z,43.10
2018-12-27T15:01:30.265Z,45.23
2018-12-27T15:04:01.665Z,47.40
2018-12-27T15:06:33.083Z,51.83
2018-12-27T15:09:05.954Z,40.10
2018-12-27T15:11:37.249Z,43.68
2018-12-27T15:14:08.687Z,48.15
2018-12-27T15:16:40.100Z,46.25
2018-12-27T15:19:11.475Z,41.15
2018-12-27T15:21:42.901Z,40.30
2018-12-27T15:24:14.375Z,41.30
2018-12-27T15:26:45.825Z,49.23
2018-12-27T15:29:17.268Z,40.30
2018-12-27T15:31:48.673Z,43.23
2018-12-27T15:34:20.134Z,43.68
2018-12-27T15:36:54.467Z,39.55
2018-12-27T15:39:24.650Z,46.90
2018-12-27T15:41:58.133Z,43.92
2018-12-27T15:44:29.771Z,43.00
2018-12-27T15:47:01.297Z,38.92
2018-12-27T15:49:32.637Z,44.35
2018-12-27T15:52:04.220Z,39.67
2018-12-27T15:54:35.653Z,42.30
2018-12-27T15:57:07.104Z,41.05
2018-12-27T15:59:38.475Z,48.00
2018-12-27T16:02:09.989Z,45.90
2018-12-27T16:04:43.320Z,44.15
2018-12-27T16:07:17.013Z,41.63
2018-12-27T16:09:48.684Z,39.88
2018-12-27T16:12:20.193Z,39.63
2018-12-27T16:14:51.586Z,42.20
2018-12-27T16:17:23.423Z,45.85
2018-12-27T16:19:54.781Z,52.38
2018-12-27T16:22:26.253Z,44.67
2018-12-27T16:24:57.793Z,38.38
2018-12-27T16:27:29.165Z,41.23
2018-12-27T16:30:03.740Z,38.53
2018-12-27T16:32:35.302Z,43.02
2018-12-27T16:35:06.874Z,37.53
2018-12-27T16:37:38.364Z,39.45
2018-12-27T16:40:10.024Z,42.70
2018-12-27T16:42:41.681Z,37.48
2018-12-27T16:45:13.083Z,39.85
2018-12-27T16:47:44.401Z,38.75
2018-12-27T16:50:15.893Z,46.75
2018-12-27T16:52:47.345Z,37.30
2018-12-27T16:55:18.872Z,41.50
2018-12-27T16:57:50.699Z,36.75
2018-12-27T17:00:22.507Z,37.75
2018-12-27T17:02:54.096Z,37.67
2018-12-27T17:05:25.557Z,44.45
2018-12-27T17:07:57.009Z,36.70
2018-12-27T17:10:28.574Z,47.27
2018-12-27T17:13:00.052Z,35.10
2018-12-27T17:15:31.704Z,38.92
2018-12-27T17:18:03.421Z,36.93
2018-12-27T17:20:34.802Z,39.98
2018-12-27T17:23:06.268Z,36.25
2018-12-27T17:25:38.071Z,35.70
2018-12-27T17:28:09.497Z,39.63
2018-12-27T17:30:41.197Z,35.30
2018-12-27T17:33:12.642Z,41.35
2018-12-27T17:35:44.092Z,44.40
2018-12-27T17:38:15.529Z,39.92
2018-12-27T17:40:46.919Z,45.23
2018-12-27T17:43:18.470Z,45.95
2018-12-27T17:45:49.694Z,39.03
2018-12-27T17:48:21.068Z,35.88
2018-12-27T17:50:52.494Z,50.48
2018-12-27T17:53:23.949Z,45.52
2018-12-27T17:55:55.335Z,44.03
2018-12-27T17:58:26.766Z,44.45
2018-12-27T18:00:58.201Z,42.93
2018-12-27T18:03:29.683Z,40.17
2018-12-27T18:06:01.009Z,52.27
2018-12-27T18:08:33.359Z,43.35
2018-12-27T18:11:04.784Z,46.37
2018-12-27T18:13:36.289Z,43.52
2018-12-27T18:16:07.839Z,46.05
2018-12-27T18:18:39.321Z,38.48
2018-12-27T18:21:11.085Z,39.23
2018-12-27T18:23:42.617Z,47.75
2018-12-27T18:26:15.094Z,45.03
2018-12-27T18:28:46.491Z,39.42
2018-12-27T18:31:17.996Z,43.58
2018-12-27T18:33:49.336Z,43.55
2018-12-27T18:36:20.861Z,42.65
2018-12-27T18:38:52.306Z,44.15
2018-12-27T18:41:24.083Z,52.73
2018-12-27T18:43:55.511Z,58.83
2018-12-27T18:46:26.961Z,51.53
2018-12-27T18:48:58.308Z,43.78
2018-12-27T18:51:29.989Z,42.85
2018-12-27T18:54:02.219Z,50.75
2018-12-27T18:56:33.638Z,46.53
2018-12-27T18:59:07.044Z,44.75
2018-12-27T19:01:38.502Z,49.83
2018-12-27T19:04:10.029Z,40.45
2018-12-27T19:06:41.498Z,41.95
2018-12-27T19:09:13.033Z,40.73
2018-12-27T19:12:42.125Z,47.45
2018-12-27T19:15:18.910Z,44.88
2018-12-27T19:18:19.489Z,37.20
2018-12-27T19:21:02.915Z,53.90
2018-12-27T19:23:34.622Z,36.48
2018-12-27T19:26:06.361Z,37.65
2018-12-27T19:28:37.797Z,35.00
2018-12-27T19:31:09.308Z,36.13
2018-12-27T19:33:40.782Z,40.52
2018-12-27T19:36:12.215Z,38.48
2018-12-27T19:38:43.666Z,38.48
2018-12-27T19:41:15.188Z,33.95
2018-12-27T19:43:46.580Z,41.50
2018-12-27T19:46:18.149Z,42.78
2018-12-27T19:48:49.579Z,36.90
2018-12-27T19:51:21.063Z,35.92
2018-12-27T19:53:52.503Z,40.83
2018-12-27T19:56:25.682Z,37.48
2018-12-27T19:58:57.390Z,41.30
2018-12-27T20:01:30.308Z,38.70
2018-12-27T20:04:01.634Z,40.83
2018-12-27T20:06:34.113Z,45.50
2018-12-27T20:09:07.539Z,40.25
2018-12-27T20:11:39.095Z,41.08
2018-12-27T20:14:10.611Z,36.20
2018-12-27T20:16:42.258Z,40.15
2018-12-27T20:19:13.573Z,41.68
2018-12-27T20:21:45.036Z,38.90
2018-12-27T20:24:16.642Z,42.78
2018-12-27T20:26:48.092Z,46.88
2018-12-27T20:29:20.702Z,40.60
2018-12-27T20:31:52.857Z,39.90
2018-12-27T20:34:24.316Z,42.05
2018-12-27T20:36:55.710Z,38.08
2018-12-27T20:39:27.065Z,43.52
2018-12-27T20:41:58.488Z,40.60
2018-12-27T20:44:30.001Z,41.30
2018-12-27T20:47:01.501Z,44.08
2018-12-27T20:49:33.016Z,47.00
2018-12-27T20:52:04.467Z,41.83
2018-12-27T20:54:35.938Z,43.37
2018-12-27T20:57:07.352Z,57.10
2018-12-27T20:59:38.744Z,46.85
2018-12-27T21:02:10.215Z,62.20
2018-12-27T21:04:41.786Z,50.83
2018-12-27T21:07:13.162Z,54.45
2018-12-27T21:09:44.932Z,48.73
2018-12-27T21:12:16.367Z,60.00
2018-12-27T21:14:48.083Z,53.30
2018-12-27T21:17:19.591Z,50.78
2018-12-27T21:19:51.072Z,46.95
2018-12-27T21:22:22.842Z,44.40
2018-12-27T21:24:54.329Z,51.30
2018-12-27T21:27:25.676Z,49.08
2018-12-27T21:29:57.096Z,45.98
2018-12-27T21:32:28.676Z,47.60
2018-12-27T21:35:00.238Z,44.33
2018-12-27T21:37:31.741Z,42.50
2018-12-27T21:40:03.256Z,39.75
2018-12-27T21:42:34.710Z,38.55
2018-12-27T21:45:06.576Z,42.48
2018-12-27T21:47:37.881Z,42.45
2018-12-27T21:50:09.299Z,42.40
2018-12-27T21:52:40.766Z,43.10
2018-12-27T21:55:12.218Z,38.60
2018-12-27T21:57:43.633Z,39.42
2018-12-27T22:00:16.315Z,44.98
2018-12-27T22:02:47.639Z,43.05
2018-12-27T22:05:19.139Z,44.30
2018-12-27T22:07:50.571Z,38.83
2018-12-27T22:10:22.248Z,44.27
2018-12-27T22:12:53.675Z,40.17
2018-12-27T22:15:25.037Z,37.88
2018-12-27T22:17:56.488Z,44.88
2018-12-27T22:20:27.887Z,41.90
2018-12-27T22:22:59.376Z,39.60
2018-12-27T22:25:30.786Z,40.78
2018-12-27T22:28:02.069Z,43.02
2018-12-27T22:30:33.488Z,37.55
2018-12-27T22:33:04.949Z,42.93
2018-12-27T22:35:36.413Z,43.20
2018-12-27T22:38:08.005Z,40.17
2018-12-27T22:40:39.418Z,42.55
2018-12-27T22:43:10.765Z,40.23
2018-12-27T22:45:42.104Z,44.90
2018-12-27T22:48:13.568Z,46.00
2018-12-27T22:50:45.077Z,43.83
2018-12-27T22:53:17.516Z,45.90
2018-12-27T22:55:58.443Z,37.95
2018-12-27T22:58:31.649Z,39.98
2018-12-27T23:01:03.381Z,42.78
2018-12-27T23:03:35.908Z,38.73
2018-12-27T23:06:07.457Z,36.63
2018-12-27T23:08:43.035Z,43.73
2018-12-27T23:11:11.855Z,43.15
2018-12-27T23:13:43.258Z,42.50
2018-12-27T23:16:14.920Z,39.50
2018-12-27T23:18:46.351Z,40.28
2018-12-27T23:21:17.790Z,37.93
2018-12-27T23:23:49.163Z,36.98
2018-12-27T23:26:20.535Z,41.02
2018-12-27T23:28:51.999Z,45.90
2018-12-27T23:31:23.501Z,41.05
2018-12-27T23:33:54.927Z,35.08
2018-12-27T23:36:26.353Z,40.35
2018-12-27T23:38:57.807Z,41.08
2018-12-27T23:41:30.469Z,44.55
2018-12-27T23:44:01.821Z,45.15
2018-12-27T23:46:33.263Z,43.78
2018-12-27T23:49:04.776Z,46.08
2018-12-27T23:51:36.224Z,46.85
2018-12-27T23:54:07.931Z,37.23
2018-12-27T23:56:39.430Z,44.98
2018-12-27T23:59:11.368Z,35.60
